Time;durP1;ratioP1;P1;durP2;ratioP2;P2;SDS_P1;SDS_P2;PMS_P1;PMS_P2;Temp;Humidity;BMP_temperature;BMP_pressure;BME280_temperature;BME280_humidity;BME280_pressure;Samples;Min_cycle;Max_cycle;Signal;HPM_P1;HPM_P2
2023/08/30 06:56:23;;;;;;;12.40;7.65;;;;;;;13.43;100.00;100414.31;5110378;27;20430;-75
2023/08/30 06:58:48;;;;;;;13.20;7.57;;;;;;;13.40;100.00;100422.97;5091976;28;20050;-69
2023/08/30 07:01:13;;;;;;;15.00;11.40;;;;;;;13.32;100.00;100417.97;5108091;28;20073;-68
2023/08/30 07:03:39;;;;;;;14.27;11.30;;;;;;;13.33;100.00;100404.13;5092128;28;20029;-72
2023/08/30 07:06:05;;;;;;;15.10;8.00;;;;;;;13.37;100.00;100415.34;5110466;28;20031;-74
2023/08/30 07:08:30;;;;;;;14.48;11.63;;;;;;;13.18;100.00;100398.50;5123342;28;20024;-70
2023/08/30 07:10:56;;;;;;;14.50;11.10;;;;;;;13.14;100.00;100387.31;5108790;28;20392;-68
2023/08/30 07:13:21;;;;;;;12.60;10.00;;;;;;;13.08;100.00;100369.31;5109998;28;20462;-68
2023/08/30 07:15:46;;;;;;;15.40;10.32;;;;;;;13.09;100.00;100376.41;5108460;28;20443;-69
2023/08/30 07:18:12;;;;;;;15.57;10.98;;;;;;;13.08;100.00;100369.31;5109803;28;20485;-68
2023/08/30 07:20:39;;;;;;;15.32;10.77;;;;;;;13.09;100.00;100365.53;5109483;28;20020;-68
2023/08/30 07:23:04;;;;;;;13.15;10.68;;;;;;;13.10;100.00;100361.72;5108768;28;20035;-68
2023/08/30 07:25:30;;;;;;;14.43;10.68;;;;;;;13.10;100.00;100350.88;5126484;28;20027;-69
2023/08/30 07:27:56;;;;;;;11.38;9.50;;;;;;;13.16;100.00;100360.72;5114700;27;20031;-69
2023/08/30 07:30:21;;;;;;;10.27;9.02;;;;;;;13.10;100.00;100361.72;5111069;28;20039;-68
2023/08/30 07:32:47;;;;;;;9.13;8.18;;;;;;;13.10;100.00;100357.13;5129834;28;20023;-68
2023/08/30 07:35:13;;;;;;;11.20;8.80;;;;;;;13.08;100.00;100353.84;5129608;28;20026;-69
2023/08/30 07:37:38;;;;;;;10.88;8.45;;;;;;;13.11;100.00;100357.94;5129642;28;20027;-69
2023/08/30 07:40:04;;;;;;;9.85;7.72;;;;;;;13.10;100.00;100350.88;5129813;28;20024;-70
2023/08/30 07:42:30;;;;;;;9.38;7.78;;;;;;;13.23;100.00;100346.94;5136186;27;20143;-70
2023/08/30 07:44:55;;;;;;;9.35;7.35;;;;;;;13.23;100.00;100350.47;5150455;27;20076;-71
2023/08/30 07:47:20;;;;;;;7.57;6.78;;;;;;;13.23;100.00;100350.47;5135146;27;20030;-71
2023/08/30 07:49:46;;;;;;;8.63;6.53;;;;;;;13.26;100.00;100346.44;5125001;27;20031;-70
2023/08/30 07:52:12;;;;;;;10.27;7.60;;;;;;;13.21;100.00;100339.06;5141035;27;20019;-71
2023/08/30 07:54:40;;;;;;;7.05;6.30;;;;;;;13.26;100.00;100346.44;5128985;28;20131;-70
2023/08/30 07:57:06;;;;;;;7.60;6.80;;;;;;;13.28;100.00;100341.56;5128743;28;20027;-70
2023/08/30 07:59:38;;;;;;;8.18;6.65;;;;;;;13.25;100.00;100336.63;5129210;28;20034;-74
2023/08/30 08:02:06;;;;;;;10.40;6.85;;;;;;;13.25;100.00;100344.78;5142723;27;20111;-73
2023/08/30 08:04:32;;;;;;;7.40;6.00;;;;;;;13.24;100.00;100343.13;5149805;27;20450;-76
2023/08/30 08:06:57;;;;;;;7.93;6.95;;;;;;;13.17;100.00;100337.91;5141090;27;20027;-76
2023/08/30 08:09:22;;;;;;;8.88;6.82;;;;;;;13.18;100.00;100342.28;5100847;28;20028;-75
2023/08/30 08:11:49;;;;;;;8.05;6.95;;;;;;;13.16;100.00;100343.59;5115305;28;20032;-72
2023/08/30 08:14:14;;;;;;;9.05;6.18;;;;;;;13.16;100.00;100349.03;5115847;28;20030;-71
2023/08/30 08:16:40;;;;;;;8.95;6.50;;;;;;;13.17;100.00;100343.34;5127584;27;20106;-71
2023/08/30 08:19:06;;;;;;;7.38;6.13;;;;;;;13.22;100.00;100350.72;5116738;27;20035;-72
2023/08/30 08:21:32;;;;;;;8.57;6.18;;;;;;;13.17;100.00;100350.69;5136125;27;20378;-72
2023/08/30 08:23:57;;;;;;;7.82;6.70;;;;;;;13.15;100.00;100361.81;5136295;27;20034;-72
2023/08/30 08:26:22;;;;;;;8.98;6.22;;;;;;;13.15;100.00;100353.66;5136265;27;20019;-72
2023/08/30 08:28:48;;;;;;;6.88;5.78;;;;;;;13.17;100.00;100346.06;5135885;27;20068;-71
2023/08/30 08:31:13;;;;;;;8.30;6.03;;;;;;;13.19;100.00;100349.34;5116610;27;20032;-71
2023/08/30 08:33:39;;;;;;;7.80;6.25;;;;;;;13.19;100.00;100343.91;5101701;28;20020;-71
2023/08/30 08:36:05;;;;;;;6.15;5.35;;;;;;;13.22;100.00;100343.41;5095013;28;20033;-71
2023/08/30 08:38:30;;;;;;;6.68;5.30;;;;;;;13.22;100.00;100348.81;5120058;27;20053;-72
2023/08/30 08:41:03;;;;;;;5.75;5.15;;;;;;;13.24;100.00;100343.97;5135951;27;20358;-72
2023/08/30 08:43:29;;;;;;;6.22;5.25;;;;;;;13.23;100.00;100350.47;5117537;27;20019;-72
2023/08/30 08:45:59;;;;;;;5.90;5.25;;;;;;;13.26;100.00;100360.03;5135683;27;20027;-72
2023/08/30 08:48:28;;;;;;;7.10;5.00;;;;;;;13.25;100.00;100334.72;5135506;27;20023;-72
2023/08/30 08:50:55;;;;;;;6.72;4.97;;;;;;;13.27;100.00;100337.19;5135502;27;20414;-72
2023/08/30 08:53:21;;;;;;;6.57;4.97;;;;;;;13.29;100.00;100348.66;5130352;27;20104;-72
2023/08/30 08:55:48;;;;;;;6.28;4.78;;;;;;;13.32;100.00;100347.31;5092088;28;20040;-72
2023/08/30 08:58:14;;;;;;;6.00;5.05;;;;;;;13.30;100.00;100356.53;5076428;28;20054;-72
2023/08/30 09:00:42;;;;;;;5.53;4.95;;;;;;;13.34;100.00;100345.19;5073773;28;20024;-72
2023/08/30 09:03:08;;;;;;;5.72;4.97;;;;;;;13.41;100.00;100352.06;5094615;28;20110;-72
2023/08/30 09:05:37;;;;;;;5.97;5.22;;;;;;;13.47;100.00;100347.50;5094265;28;20070;-72
2023/08/30 09:08:04;;;;;;;4.72;4.13;;;;;;;13.55;100.00;100344.31;5076353;28;20020;-71
2023/08/30 09:10:29;;;;;;;7.32;4.90;;;;;;;13.55;100.00;100338.88;5086500;28;20032;-72
2023/08/30 09:12:55;;;;;;;5.53;4.70;;;;;;;13.61;100.00;100337.84;5114516;28;20023;-71
2023/08/30 09:15:21;;;;;;;5.90;5.20;;;;;;;13.68;100.00;100334.09;5107131;28;20456;-72
2023/08/30 09:17:46;;;;;;;7.00;5.03;;;;;;;13.78;100.00;100328.75;5093009;28;20047;-72
2023/08/30 09:20:13;;;;;;;5.32;4.82;;;;;;;13.88;100.00;100328.84;5094138;28;20451;-72
2023/08/30 09:22:43;;;;;;;6.20;5.00;;;;;;;13.93;100.00;100328.84;5093950;28;20119;-72
2023/08/30 09:25:09;;;;;;;6.28;5.15;;;;;;;13.98;100.00;100336.28;5112627;27;20023;-72
2023/08/30 09:27:36;;;;;;;5.65;4.63;;;;;;;13.99;100.00;100338.72;5106742;27;20072;-72
2023/08/30 09:30:04;;;;;;;7.20;4.90;;;;;;;14.04;100.00;100335.22;5135109;27;20023;-72
2023/08/30 09:32:29;;;;;;;5.82;5.28;;;;;;;14.03;100.00;100340.94;5135012;27;20052;-72
2023/08/30 09:34:55;;;;;;;6.25;5.10;;;;;;;14.09;100.00;100339.88;5116119;27;20107;-72
2023/08/30 09:37:23;;;;;;;5.53;4.97;;;;;;;14.11;100.00;100345.88;5110376;28;20162;-72
2023/08/30 09:39:52;;;;;;;5.90;5.20;;;;;;;14.20;100.00;100346.22;5113305;28;20027;-72
2023/08/30 09:42:18;;;;;;;6.07;5.07;;;;;;;14.25;100.00;100343.50;5125875;27;20456;-71
2023/08/30 09:44:44;;;;;;;11.30;5.85;;;;;;;14.29;100.00;100340.00;5134173;27;20023;-72
2023/08/30 09:47:09;;;;;;;6.57;5.55;;;;;;;14.30;100.00;100336.22;5134323;27;20019;-70
2023/08/30 09:49:43;;;;;;;6.60;5.47;;;;;;;14.39;100.00;100338.41;5134132;27;20035;-72
2023/08/30 09:52:09;;;;;;;6.25;5.47;;;;;;;14.45;100.00;100338.22;5134296;27;20019;-72
2023/08/30 09:54:38;;;;;;;7.20;5.85;;;;;;;14.51;100.00;100341.78;5134162;27;20039;-72
2023/08/30 09:57:04;;;;;;;6.03;5.50;;;;;;;14.62;100.00;100329.88;5119392;27;20038;-72
2023/08/30 09:59:30;;;;;;;6.82;6.15;;;;;;;14.64;100.00;100341.31;5114160;28;20058;-72
2023/08/30 10:01:57;;;;;;;7.22;6.63;;;;;;;14.79;100.00;100334.31;5109287;28;20036;-72
2023/08/30 10:04:23;;;;;;;8.23;6.18;;;;;;;14.78;100.00;100327.22;5116995;27;20041;-72
2023/08/30 10:06:50;;;;;;;6.90;6.20;;;;;;;14.88;100.00;100336.25;5134056;27;20362;-72
2023/08/30 10:09:16;;;;;;;7.25;6.55;;;;;;;15.02;100.00;100319.41;5134253;27;20062;-72
2023/08/30 10:11:45;;;;;;;8.40;7.10;;;;;;;15.12;100.00;100321.38;5133999;27;20052;-72
2023/08/30 10:14:12;;;;;;;7.30;6.60;;;;;;;15.23;100.00;100323.00;5130591;27;20023;-74
2023/08/30 10:16:44;;;;;;;8.70;6.78;;;;;;;15.32;100.00;100318.66;5107059;27;20047;-71
2023/08/30 10:19:27;;;;;;;6.80;6.20;;;;;;;15.45;100.00;100317.34;5106309;27;20078;-71
2023/08/30 10:22:08;;;;;;;7.85;6.28;;;;;;;15.54;100.00;100315.72;5116318;27;20031;-72
2023/08/30 10:24:46;;;;;;;7.85;7.15;;;;;;;15.64;100.00;100314.91;5104806;28;20473;-73
2023/08/30 10:27:14;;;;;;;6.80;6.20;;;;;;;15.68;100.00;100315.19;5113669;28;20031;-72
2023/08/30 10:29:43;;;;;;;7.57;6.78;;;;;;;15.73;100.00;100307.81;5111481;28;20019;-71
2023/08/30 10:32:08;;;;;;;7.93;7.10;;;;;;;15.77;100.00;100314.38;5113204;28;20029;-71
2023/08/30 10:34:35;;;;;;;7.95;7.15;;;;;;;15.81;100.00;100313.88;5127389;27;20027;-72
2023/08/30 10:37:01;;;;;;;11.45;6.85;;;;;;;15.90;100.00;100306.75;5112507;28;20024;-72
2023/08/30 10:39:41;;;;;;;6.65;6.13;;;;;;;16.09;100.00;100307.84;5112640;28;20477;-72
2023/08/30 10:42:15;;;;;;;6.32;5.72;;;;;;;16.22;100.00;100311.88;5112364;28;20039;-72
2023/08/30 10:44:51;;;;;;;6.50;6.00;;;;;;;16.26;100.00;100309.41;5112642;28;20023;-72
2023/08/30 10:47:22;;;;;;;6.63;5.93;;;;;;;16.42;100.00;100310.22;5112495;28;20028;-72
2023/08/30 10:49:48;;;;;;;5.78;5.18;;;;;;;16.40;100.00;100305.03;5113859;28;20045;-72
2023/08/30 10:52:13;;;;;;;6.00;4.82;;;;;;;16.47;100.00;100304.72;5132158;27;20457;-72
2023/08/30 10:54:39;;;;;;;5.22;4.65;;;;;;;16.57;100.00;100309.34;5132668;28;20131;-72
2023/08/30 10:57:04;;;;;;;5.68;4.70;;;;;;;16.61;100.00;100310.44;5133208;28;20074;-72
2023/08/30 10:59:29;;;;;;;5.57;4.55;;;;;;;16.68;100.00;100310.13;5133248;28;20031;-72
2023/08/30 11:01:56;;;;;;;5.28;3.90;;;;;;;16.68;100.00;100318.31;5130740;28;20038;-72
2023/08/30 11:04:22;;;;;;;4.28;3.78;;;;;;;16.69;100.00;100307.13;5111627;28;20028;-72
2023/08/30 11:06:49;;;;;;;5.50;3.72;;;;;;;16.64;100.00;100304.41;5098982;28;20435;-71
2023/08/30 11:09:19;;;;;;;4.93;4.15;;;;;;;16.76;100.00;100304.91;5133480;28;20450;-75
2023/08/30 11:11:46;;;;;;;4.38;3.88;;;;;;;16.93;100.00;100306.50;5133269;28;20030;-71
2023/08/30 11:14:12;;;;;;;8.02;3.70;;;;;;;17.07;100.00;100296.56;5133353;28;20019;-70
2023/08/30 11:16:38;;;;;;;5.68;3.50;;;;;;;17.20;100.00;100308.00;5133307;28;20023;-72
2023/08/30 11:19:04;;;;;;;6.15;3.38;;;;;;;17.40;100.00;100307.84;5133665;27;20023;-71
2023/08/30 11:21:38;;;;;;;6.20;3.40;;;;;;;17.66;100.00;100313.97;5118733;28;20038;-71
2023/08/30 11:24:05;;;;;;;4.97;3.38;;;;;;;17.69;100.00;100309.84;5103620;28;20024;-71
2023/08/30 11:26:30;;;;;;;5.05;3.22;;;;;;;17.54;100.00;100316.22;5092104;28;20020;-71
2023/08/30 11:28:55;;;;;;;5.65;3.63;;;;;;;17.40;100.00;100321.53;5092113;28;20032;-70
2023/08/30 11:31:22;;;;;;;7.50;3.00;;;;;;;17.26;100.00;100337.75;5092407;28;20028;-71
2023/08/30 11:33:56;;;;;;;7.05;3.10;;;;;;;17.37;100.00;100335.78;5092193;28;20020;-70
2023/08/30 11:36:23;;;;;;;7.55;3.05;;;;;;;17.27;100.00;100338.56;5105732;28;20141;-71
2023/08/30 11:38:56;;;;;;;8.02;3.00;;;;;;;17.28;100.00;100334.75;5112435;28;20023;-73
2023/08/30 11:41:22;;;;;;;7.53;2.75;;;;;;;17.34;100.00;100330.88;5113416;28;20058;-72
2023/08/30 11:43:48;;;;;;;6.03;2.78;;;;;;;17.32;100.00;100330.34;5115026;27;20028;-71
2023/08/30 11:46:13;;;;;;;7.72;3.08;;;;;;;17.34;100.00;100339.06;5114213;28;20490;-70
2023/08/30 11:48:40;;;;;;;9.23;3.15;;;;;;;17.43;100.00;100342.84;5105725;28;20036;-72
2023/08/30 11:51:09;;;;;;;7.82;2.55;;;;;;;17.48;100.00;100342.00;5095710;28;20065;-72
2023/08/30 11:53:34;;;;;;;7.10;2.80;;;;;;;17.54;100.00;100335.38;5098647;28;20023;-72
2023/08/30 11:56:00;;;;;;;5.70;2.83;;;;;;;17.63;100.00;100338.34;5115514;28;20043;-72
2023/08/30 11:58:26;;;;;;;6.75;2.88;;;;;;;17.63;100.00;100336.41;5098044;28;20442;-75
2023/08/30 12:00:53;;;;;;;7.95;2.95;;;;;;;17.83;100.00;100329.16;5095347;28;20027;-72
2023/08/30 12:03:19;;;;;;;7.70;3.13;;;;;;;18.09;100.00;100324.31;5116209;28;20042;-72
2023/08/30 12:05:48;;;;;;;9.73;3.00;;;;;;;18.21;100.00;100335.69;5115637;28;20359;-71
2023/08/30 12:08:30;;;;;;;7.32;2.50;;;;;;;18.23;100.00;100338.94;5114175;28;20444;-73
2023/08/30 12:10:57;;;;;;;5.40;2.20;;;;;;;18.01;79.46;100330.41;5098470;27;20518;-70
2023/08/30 12:13:26;;;;;;;10.50;2.60;;;;;;;17.92;89.22;100330.22;5136539;27;20450;-68
2023/08/30 12:15:52;;;;;;;6.28;2.47;;;;;;;17.80;93.16;100344.25;5117078;27;20519;-68
2023/08/30 12:18:24;;;;;;;5.85;2.50;;;;;;;17.71;100.00;100343.22;5114206;28;20062;-69
2023/08/30 12:21:00;;;;;;;6.13;2.60;;;;;;;17.68;100.00;100339.13;5115602;28;20451;-68
2023/08/30 12:23:27;;;;;;;7.47;2.75;;;;;;;17.63;95.70;100343.81;5115703;28;20031;-68
2023/08/30 12:26:04;;;;;;;6.43;2.35;;;;;;;17.60;100.00;100341.66;5114494;28;20057;-68
2023/08/30 12:28:30;;;;;;;8.63;2.90;;;;;;;17.60;100.00;100347.13;5115575;28;20019;-68
2023/08/30 12:30:56;;;;;;;10.27;2.92;;;;;;;17.59;100.00;100351.78;5079481;28;20039;-68
2023/08/30 12:33:21;;;;;;;8.65;2.90;;;;;;;17.62;100.00;100358.59;5095153;28;20030;-68
2023/08/30 12:35:47;;;;;;;6.75;2.70;;;;;;;17.61;100.00;100363.25;5094811;28;20032;-68
2023/08/30 12:38:17;;;;;;;8.38;2.97;;;;;;;17.58;100.00;100360.28;5095117;28;20408;-67
2023/08/30 12:40:43;;;;;;;9.38;2.92;;;;;;;17.54;100.00;100354.53;5121657;27;20514;-68
2023/08/30 12:43:08;;;;;;;8.75;3.08;;;;;;;17.48;100.00;100359.25;5135616;27;20340;-68
2023/08/30 12:45:33;;;;;;;7.43;2.97;;;;;;;17.52;100.00;100357.56;5135971;27;20034;-69
2023/08/30 12:47:59;;;;;;;7.18;2.60;;;;;;;17.51;100.00;100369.63;5135920;27;20064;-68
2023/08/30 12:50:24;;;;;;;9.38;2.63;;;;;;;17.45;89.44;100368.00;5135805;27;20362;-68
2023/08/30 12:52:50;;;;;;;7.53;2.63;;;;;;;17.52;93.31;100368.50;5121835;27;20059;-68
2023/08/30 12:55:17;;;;;;;7.28;2.55;;;;;;;17.64;100.00;100368.16;5114059;28;20044;-68
2023/08/30 12:57:44;;;;;;;6.85;2.28;;;;;;;17.74;97.87;100364.53;5115248;28;20034;-67
2023/08/30 13:00:10;;;;;;;7.47;2.72;;;;;;;17.77;100.00;100372.19;5115087;28;20029;-68
2023/08/30 13:02:35;;;;;;;9.10;2.72;;;;;;;17.76;100.00;100378.75;5112666;28;20024;-68
2023/08/30 13:05:01;;;;;;;6.43;2.78;;;;;;;17.72;91.51;100372.19;5114766;28;20026;-68
2023/08/30 13:07:26;;;;;;;8.65;2.67;;;;;;;17.92;100.00;100364.97;5114904;28;20019;-70
2023/08/30 13:09:51;;;;;;;6.55;2.67;;;;;;;18.03;82.14;100366.53;5106771;28;20053;-68
2023/08/30 13:12:17;;;;;;;6.97;2.40;;;;;;;18.30;91.65;100346.84;5119217;27;20019;-67
2023/08/30 13:14:42;;;;;;;9.88;2.55;;;;;;;18.40;73.52;100349.47;5108215;27;20035;-68
2023/08/30 13:17:07;;;;;;;7.15;2.53;;;;;;;18.59;70.75;100349.53;5094121;28;20024;-69
2023/08/30 13:19:33;;;;;;;6.22;2.70;;;;;;;18.71;68.14;100356.53;5094283;28;20410;-68
2023/08/30 13:21:58;;;;;;;10.18;2.85;;;;;;;18.84;69.33;100361.31;5094045;28;20028;-68
2023/08/30 13:24:23;;;;;;;5.93;2.50;;;;;;;18.97;68.30;100361.75;5094450;28;20468;-68
2023/08/30 13:26:48;;;;;;;8.48;2.63;;;;;;;18.94;70.25;100365.88;5093883;28;20024;-69
2023/08/30 13:29:15;;;;;;;5.18;2.40;;;;;;;19.01;61.44;100365.50;5112983;27;20030;-69
2023/08/30 13:31:40;;;;;;;7.28;2.60;;;;;;;19.08;63.07;100360.50;5125759;27;20020;-68
2023/08/30 13:34:05;;;;;;;8.90;2.65;;;;;;;19.23;66.96;100371.25;5093780;28;20046;-68
2023/08/30 13:36:31;;;;;;;6.53;2.08;;;;;;;19.10;60.53;100369.25;5093564;28;20056;-69
2023/08/30 13:38:56;;;;;;;7.07;2.30;;;;;;;18.96;61.87;100374.63;5093577;28;20479;-69
2023/08/30 13:41:21;;;;;;;7.43;2.28;;;;;;;18.95;65.54;100373.00;5093862;28;20026;-69
2023/08/30 13:43:47;;;;;;;8.15;2.60;;;;;;;19.11;66.67;100373.63;5093372;28;20027;-69
2023/08/30 13:46:12;;;;;;;10.00;2.63;;;;;;;19.18;64.58;100374.09;5132386;27;20031;-69
2023/08/30 13:48:37;;;;;;;6.80;2.40;;;;;;;19.15;61.83;100362.91;5134300;27;20043;-69
2023/08/30 13:51:03;;;;;;;10.50;2.58;;;;;;;19.01;63.04;100371.84;5133657;27;20366;-69
2023/08/30 13:53:28;;;;;;;18.85;3.50;;;;;;;18.77;67.48;100369.06;5111087;28;20478;-69
2023/08/30 13:55:54;;;;;;;9.63;2.40;;;;;;;18.77;67.61;100374.56;5113325;28;20053;-69
2023/08/30 13:58:19;;;;;;;6.97;2.10;;;;;;;18.88;63.51;100381.56;5113824;28;20363;-69
2023/08/30 14:00:45;;;;;;;5.57;2.00;;;;;;;19.01;65.18;100365.50;5108837;27;20031;-69
2023/08/30 14:03:11;;;;;;;7.25;2.17;;;;;;;19.16;65.78;100367.25;5113646;28;20028;-70
2023/08/30 14:05:40;;;;;;;7.03;2.00;;;;;;;19.14;60.38;100375.78;5106452;28;20026;-68
2023/08/30 14:08:06;;;;;;;5.43;1.77;;;;;;;19.15;59.20;100379.34;5093180;28;20024;-73
2023/08/30 14:10:31;;;;;;;5.18;2.15;;;;;;;19.20;60.71;100371.03;5099426;28;20461;-69
